sensor_id;sensor_type;location;lat;lon;timestamp;P1;durP1;ratioP1;P2;durP2;ratioP2
47429;SDS011;33181;49.246;7.372;2023-04-25T00:02:20;10.63;;;7.40;;
47429;SDS011;33181;49.246;7.372;2023-04-25T00:04:47;9.20;;;7.53;;
47429;SDS011;33181;49.246;7.372;2023-04-25T00:07:14;10.90;;;8.40;;
47429;SDS011;33181;49.246;7.372;2023-04-25T00:09:41;11.33;;;7.30;;
47429;SDS011;33181;49.246;7.372;2023-04-25T00:12:07;10.63;;;7.37;;
47429;SDS011;33181;49.246;7.372;2023-04-25T00:14:33;12.87;;;8.90;;
47429;SDS011;33181;49.246;7.372;2023-04-25T00:17:00;11.67;;;8.33;;
47429;SDS011;33181;49.246;7.372;2023-04-25T00:19:27;11.97;;;8.27;;
47429;SDS011;33181;49.246;7.372;2023-04-25T00:21:56;11.63;;;8.43;;
47429;SDS011;33181;49.246;7.372;2023-04-25T00:24:22;11.40;;;7.77;;
47429;SDS011;33181;49.246;7.372;2023-04-25T00:26:48;11.60;;;8.10;;
47429;SDS011;33181;49.246;7.372;2023-04-25T00:29:14;10.83;;;8.27;;
47429;SDS011;33181;49.246;7.372;2023-04-25T00:31:39;12.57;;;8.90;;
47429;SDS011;33181;49.246;7.372;2023-04-25T00:34:06;12.27;;;8.43;;
47429;SDS011;33181;49.246;7.372;2023-04-25T00:36:33;13.03;;;8.50;;
47429;SDS011;33181;49.246;7.372;2023-04-25T00:38:58;12.37;;;9.17;;
47429;SDS011;33181;49.246;7.372;2023-04-25T00:41:25;12.33;;;8.57;;
47429;SDS011;33181;49.246;7.372;2023-04-25T00:43:51;12.73;;;8.90;;
47429;SDS011;33181;49.246;7.372;2023-04-25T00:46:19;12.03;;;8.67;;
47429;SDS011;33181;49.246;7.372;2023-04-25T00:48:45;11.70;;;9.17;;
47429;SDS011;33181;49.246;7.372;2023-04-25T00:51:13;12.97;;;9.27;;
47429;SDS011;33181;49.246;7.372;2023-04-25T00:53:44;13.30;;;9.00;;
47429;SDS011;33181;49.246;7.372;2023-04-25T00:56:10;14.17;;;8.87;;
47429;SDS011;33181;49.246;7.372;2023-04-25T00:58:36;13.00;;;9.00;;
47429;SDS011;33181;49.246;7.372;2023-04-25T01:01:03;12.87;;;8.87;;
47429;SDS011;33181;49.246;7.372;2023-04-25T01:03:30;15.27;;;9.07;;
47429;SDS011;33181;49.246;7.372;2023-04-25T01:05:58;15.37;;;8.60;;
47429;SDS011;33181;49.246;7.372;2023-04-25T01:08:24;13.20;;;9.10;;
47429;SDS011;33181;49.246;7.372;2023-04-25T01:10:52;13.13;;;9.37;;
47429;SDS011;33181;49.246;7.372;2023-04-25T01:13:18;13.60;;;9.40;;
47429;SDS011;33181;49.246;7.372;2023-04-25T01:15:44;13.17;;;9.33;;
47429;SDS011;33181;49.246;7.372;2023-04-25T01:18:10;13.57;;;8.90;;
47429;SDS011;33181;49.246;7.372;2023-04-25T01:20:37;13.30;;;9.50;;
47429;SDS011;33181;49.246;7.372;2023-04-25T01:23:05;12.17;;;9.10;;
47429;SDS011;33181;49.246;7.372;2023-04-25T01:25:31;11.37;;;8.53;;
47429;SDS011;33181;49.246;7.372;2023-04-25T01:27:57;13.43;;;8.60;;
47429;SDS011;33181;49.246;7.372;2023-04-25T01:30:24;12.90;;;9.00;;
47429;SDS011;33181;49.246;7.372;2023-04-25T01:32:52;12.27;;;8.80;;
47429;SDS011;33181;49.246;7.372;2023-04-25T01:35:22;13.70;;;10.20;;
47429;SDS011;33181;49.246;7.372;2023-04-25T01:37:49;11.80;;;8.80;;
47429;SDS011;33181;49.246;7.372;2023-04-25T01:40:16;15.13;;;9.63;;
47429;SDS011;33181;49.246;7.372;2023-04-25T01:42:45;16.17;;;9.90;;
47429;SDS011;33181;49.246;7.372;2023-04-25T01:45:11;19.03;;;10.83;;
47429;SDS011;33181;49.246;7.372;2023-04-25T01:47:38;15.47;;;10.40;;
47429;SDS011;33181;49.246;7.372;2023-04-25T01:50:07;14.43;;;10.10;;
47429;SDS011;33181;49.246;7.372;2023-04-25T01:52:33;14.77;;;10.03;;
47429;SDS011;33181;49.246;7.372;2023-04-25T01:54:59;14.30;;;10.20;;
47429;SDS011;33181;49.246;7.372;2023-04-25T01:57:27;13.87;;;9.83;;
47429;SDS011;33181;49.246;7.372;2023-04-25T01:59:54;15.60;;;10.30;;
47429;SDS011;33181;49.246;7.372;2023-04-25T02:02:24;14.07;;;9.40;;
47429;SDS011;33181;49.246;7.372;2023-04-25T02:04:51;15.93;;;10.17;;
47429;SDS011;33181;49.246;7.372;2023-04-25T02:07:17;14.77;;;9.93;;
47429;SDS011;33181;49.246;7.372;2023-04-25T02:09:43;13.23;;;9.63;;
47429;SDS011;33181;49.246;7.372;2023-04-25T02:12:09;15.40;;;9.80;;
47429;SDS011;33181;49.246;7.372;2023-04-25T02:14:35;13.27;;;9.00;;
47429;SDS011;33181;49.246;7.372;2023-04-25T02:17:01;13.50;;;9.80;;
47429;SDS011;33181;49.246;7.372;2023-04-25T02:19:27;13.50;;;9.70;;
47429;SDS011;33181;49.246;7.372;2023-04-25T02:21:53;13.60;;;9.13;;
47429;SDS011;33181;49.246;7.372;2023-04-25T02:24:19;13.80;;;9.10;;
47429;SDS011;33181;49.246;7.372;2023-04-25T02:26:45;12.17;;;8.97;;
47429;SDS011;33181;49.246;7.372;2023-04-25T02:29:11;12.37;;;8.70;;
47429;SDS011;33181;49.246;7.372;2023-04-25T02:31:37;12.50;;;8.60;;
47429;SDS011;33181;49.246;7.372;2023-04-25T02:34:03;13.17;;;9.00;;
47429;SDS011;33181;49.246;7.372;2023-04-25T02:36:29;11.67;;;8.73;;
47429;SDS011;33181;49.246;7.372;2023-04-25T02:38:59;11.87;;;8.60;;
47429;SDS011;33181;49.246;7.372;2023-04-25T02:41:25;12.70;;;9.10;;
47429;SDS011;33181;49.246;7.372;2023-04-25T02:43:52;13.07;;;9.07;;
47429;SDS011;33181;49.246;7.372;2023-04-25T02:46:17;14.77;;;10.63;;
47429;SDS011;33181;49.246;7.372;2023-04-25T02:48:43;13.37;;;8.93;;
47429;SDS011;33181;49.246;7.372;2023-04-25T02:51:09;17.07;;;10.80;;
47429;SDS011;33181;49.246;7.372;2023-04-25T02:53:35;14.10;;;10.00;;
47429;SDS011;33181;49.246;7.372;2023-04-25T02:56:01;15.60;;;10.73;;
47429;SDS011;33181;49.246;7.372;2023-04-25T02:58:27;13.23;;;10.00;;
47429;SDS011;33181;49.246;7.372;2023-04-25T03:00:53;11.90;;;9.00;;
47429;SDS011;33181;49.246;7.372;2023-04-25T03:03:19;13.40;;;9.40;;
47429;SDS011;33181;49.246;7.372;2023-04-25T03:05:48;13.10;;;9.37;;
47429;SDS011;33181;49.246;7.372;2023-04-25T03:08:15;14.90;;;10.57;;
47429;SDS011;33181;49.246;7.372;2023-04-25T03:10:42;12.90;;;9.47;;
47429;SDS011;33181;49.246;7.372;2023-04-25T03:13:08;12.53;;;9.40;;
47429;SDS011;33181;49.246;7.372;2023-04-25T03:15:35;13.23;;;9.20;;
47429;SDS011;33181;49.246;7.372;2023-04-25T03:18:01;14.93;;;10.20;;
47429;SDS011;33181;49.246;7.372;2023-04-25T03:20:27;16.00;;;10.83;;
47429;SDS011;33181;49.246;7.372;2023-04-25T03:22:53;15.50;;;10.53;;
47429;SDS011;33181;49.246;7.372;2023-04-25T03:25:20;15.33;;;11.23;;
47429;SDS011;33181;49.246;7.372;2023-04-25T03:27:45;17.10;;;12.10;;
47429;SDS011;33181;49.246;7.372;2023-04-25T03:30:11;23.00;;;13.00;;
47429;SDS011;33181;49.246;7.372;2023-04-25T03:32:37;14.80;;;10.57;;
47429;SDS011;33181;49.246;7.372;2023-04-25T03:35:03;14.80;;;10.13;;
47429;SDS011;33181;49.246;7.372;2023-04-25T03:37:30;16.40;;;11.10;;
47429;SDS011;33181;49.246;7.372;2023-04-25T03:39:56;18.07;;;10.40;;
47429;SDS011;33181;49.246;7.372;2023-04-25T03:42:21;15.80;;;9.90;;
47429;SDS011;33181;49.246;7.372;2023-04-25T03:44:51;19.07;;;10.70;;
47429;SDS011;33181;49.246;7.372;2023-04-25T03:47:17;12.90;;;9.40;;
47429;SDS011;33181;49.246;7.372;2023-04-25T03:49:43;13.40;;;9.77;;
47429;SDS011;33181;49.246;7.372;2023-04-25T03:52:09;13.40;;;9.80;;
47429;SDS011;33181;49.246;7.372;2023-04-25T03:54:35;15.30;;;10.40;;
47429;SDS011;33181;49.246;7.372;2023-04-25T03:57:01;13.90;;;10.07;;
47429;SDS011;33181;49.246;7.372;2023-04-25T03:59:26;15.03;;;10.60;;
47429;SDS011;33181;49.246;7.372;2023-04-25T04:01:52;16.57;;;11.40;;
47429;SDS011;33181;49.246;7.372;2023-04-25T04:04:19;14.67;;;11.13;;
47429;SDS011;33181;49.246;7.372;2023-04-25T04:06:45;14.40;;;9.60;;
47429;SDS011;33181;49.246;7.372;2023-04-25T04:09:10;16.30;;;10.83;;
47429;SDS011;33181;49.246;7.372;2023-04-25T04:11:37;16.83;;;10.83;;
47429;SDS011;33181;49.246;7.372;2023-04-25T04:14:07;16.27;;;11.53;;
47429;SDS011;33181;49.246;7.372;2023-04-25T04:16:33;17.03;;;11.50;;
47429;SDS011;33181;49.246;7.372;2023-04-25T04:18:59;19.70;;;12.53;;
47429;SDS011;33181;49.246;7.372;2023-04-25T04:21:25;17.17;;;11.20;;
47429;SDS011;33181;49.246;7.372;2023-04-25T04:23:53;16.67;;;10.67;;
47429;SDS011;33181;49.246;7.372;2023-04-25T04:26:19;17.60;;;11.63;;
47429;SDS011;33181;49.246;7.372;2023-04-25T04:28:52;17.00;;;11.40;;
47429;SDS011;33181;49.246;7.372;2023-04-25T04:31:19;15.23;;;11.10;;
47429;SDS011;33181;49.246;7.372;2023-04-25T04:33:46;18.80;;;11.30;;
47429;SDS011;33181;49.246;7.372;2023-04-25T04:36:12;18.13;;;11.93;;
47429;SDS011;33181;49.246;7.372;2023-04-25T04:38:38;15.63;;;10.67;;
47429;SDS011;33181;49.246;7.372;2023-04-25T04:41:06;18.10;;;13.00;;
47429;SDS011;33181;49.246;7.372;2023-04-25T04:43:32;19.00;;;13.00;;
47429;SDS011;33181;49.246;7.372;2023-04-25T04:45:58;24.37;;;12.00;;
47429;SDS011;33181;49.246;7.372;2023-04-25T04:48:28;17.47;;;12.43;;
47429;SDS011;33181;49.246;7.372;2023-04-25T04:50:58;17.00;;;12.00;;
47429;SDS011;33181;49.246;7.372;2023-04-25T04:53:23;14.60;;;11.20;;
47429;SDS011;33181;49.246;7.372;2023-04-25T04:55:50;14.80;;;10.97;;
47429;SDS011;33181;49.246;7.372;2023-04-25T04:58:15;15.73;;;11.20;;
47429;SDS011;33181;49.246;7.372;2023-04-25T05:00:41;17.30;;;10.77;;
47429;SDS011;33181;49.246;7.372;2023-04-25T05:03:08;15.40;;;10.77;;
47429;SDS011;33181;49.246;7.372;2023-04-25T05:05:34;15.20;;;11.20;;
47429;SDS011;33181;49.246;7.372;2023-04-25T05:08:00;17.23;;;11.73;;
47429;SDS011;33181;49.246;7.372;2023-04-25T05:10:26;15.13;;;10.70;;
47429;SDS011;33181;49.246;7.372;2023-04-25T05:12:51;14.47;;;10.70;;
47429;SDS011;33181;49.246;7.372;2023-04-25T05:15:17;15.83;;;11.67;;
47429;SDS011;33181;49.246;7.372;2023-04-25T05:17:43;15.37;;;11.30;;
47429;SDS011;33181;49.246;7.372;2023-04-25T05:20:09;15.47;;;10.87;;
47429;SDS011;33181;49.246;7.372;2023-04-25T05:22:35;17.73;;;11.40;;
47429;SDS011;33181;49.246;7.372;2023-04-25T05:25:01;17.57;;;11.93;;
47429;SDS011;33181;49.246;7.372;2023-04-25T05:27:28;16.60;;;12.00;;
47429;SDS011;33181;49.246;7.372;2023-04-25T05:29:54;16.10;;;11.83;;
47429;SDS011;33181;49.246;7.372;2023-04-25T05:32:20;17.00;;;12.23;;
47429;SDS011;33181;49.246;7.372;2023-04-25T05:34:46;17.10;;;12.13;;
47429;SDS011;33181;49.246;7.372;2023-04-25T05:37:11;16.30;;;11.57;;
47429;SDS011;33181;49.246;7.372;2023-04-25T05:39:37;17.40;;;12.57;;
47429;SDS011;33181;49.246;7.372;2023-04-25T05:42:03;15.80;;;11.03;;
47429;SDS011;33181;49.246;7.372;2023-04-25T05:44:30;16.80;;;12.00;;
47429;SDS011;33181;49.246;7.372;2023-04-25T05:46:56;15.70;;;11.17;;
47429;SDS011;33181;49.246;7.372;2023-04-25T05:49:22;17.23;;;11.90;;
47429;SDS011;33181;49.246;7.372;2023-04-25T05:51:47;19.43;;;13.60;;
47429;SDS011;33181;49.246;7.372;2023-04-25T05:54:13;17.50;;;11.80;;
47429;SDS011;33181;49.246;7.372;2023-04-25T05:56:39;18.53;;;12.80;;
47429;SDS011;33181;49.246;7.372;2023-04-25T05:59:05;18.90;;;12.90;;
47429;SDS011;33181;49.246;7.372;2023-04-25T06:01:31;20.67;;;12.70;;
47429;SDS011;33181;49.246;7.372;2023-04-25T06:03:57;18.20;;;12.77;;
47429;SDS011;33181;49.246;7.372;2023-04-25T06:06:22;17.13;;;12.10;;
47429;SDS011;33181;49.246;7.372;2023-04-25T06:08:48;22.90;;;14.03;;
47429;SDS011;33181;49.246;7.372;2023-04-25T06:11:15;19.50;;;13.47;;
47429;SDS011;33181;49.246;7.372;2023-04-25T06:13:41;18.77;;;13.03;;
47429;SDS011;33181;49.246;7.372;2023-04-25T06:16:07;24.40;;;13.27;;
47429;SDS011;33181;49.246;7.372;2023-04-25T06:18:32;21.57;;;13.27;;
47429;SDS011;33181;49.246;7.372;2023-04-25T06:20:58;22.60;;;14.00;;
47429;SDS011;33181;49.246;7.372;2023-04-25T06:23:24;21.13;;;13.70;;
47429;SDS011;33181;49.246;7.372;2023-04-25T06:25:50;20.00;;;13.20;;
47429;SDS011;33181;49.246;7.372;2023-04-25T06:28:15;22.10;;;13.90;;
47429;SDS011;33181;49.246;7.372;2023-04-25T06:30:41;20.97;;;13.33;;
47429;SDS011;33181;49.246;7.372;2023-04-25T06:33:07;20.23;;;13.07;;
47429;SDS011;33181;49.246;7.372;2023-04-25T06:35:34;19.47;;;13.03;;
47429;SDS011;33181;49.246;7.372;2023-04-25T06:37:59;21.90;;;14.00;;
47429;SDS011;33181;49.246;7.372;2023-04-25T06:40:25;23.10;;;14.40;;
47429;SDS011;33181;49.246;7.372;2023-04-25T06:42:51;20.00;;;13.20;;
47429;SDS011;33181;49.246;7.372;2023-04-25T06:45:17;20.13;;;14.00;;
47429;SDS011;33181;49.246;7.372;2023-04-25T06:47:43;19.97;;;13.23;;
47429;SDS011;33181;49.246;7.372;2023-04-25T06:50:08;19.70;;;13.10;;
47429;SDS011;33181;49.246;7.372;2023-04-25T06:52:36;20.63;;;12.80;;
47429;SDS011;33181;49.246;7.372;2023-04-25T06:55:01;22.00;;;15.00;;
47429;SDS011;33181;49.246;7.372;2023-04-25T06:57:27;20.87;;;13.40;;
47429;SDS011;33181;49.246;7.372;2023-04-25T06:59:53;21.00;;;13.33;;
47429;SDS011;33181;49.246;7.372;2023-04-25T07:02:19;19.57;;;13.00;;
47429;SDS011;33181;49.246;7.372;2023-04-25T07:04:46;22.27;;;14.50;;
47429;SDS011;33181;49.246;7.372;2023-04-25T07:07:12;22.73;;;14.87;;
47429;SDS011;33181;49.246;7.372;2023-04-25T07:09:38;20.47;;;13.40;;
47429;SDS011;33181;49.246;7.372;2023-04-25T07:12:04;21.30;;;13.77;;
47429;SDS011;33181;49.246;7.372;2023-04-25T07:14:30;21.37;;;15.00;;
47429;SDS011;33181;49.246;7.372;2023-04-25T07:16:56;23.83;;;15.10;;
47429;SDS011;33181;49.246;7.372;2023-04-25T07:19:22;22.93;;;14.77;;
47429;SDS011;33181;49.246;7.372;2023-04-25T07:25:32;23.40;;;14.20;;
47429;SDS011;33181;49.246;7.372;2023-04-25T07:27:58;23.30;;;14.33;;
47429;SDS011;33181;49.246;7.372;2023-04-25T07:30:23;21.50;;;14.43;;
47429;SDS011;33181;49.246;7.372;2023-04-25T07:32:49;22.80;;;14.50;;
47429;SDS011;33181;49.246;7.372;2023-04-25T07:35:18;20.77;;;13.60;;
47429;SDS011;33181;49.246;7.372;2023-04-25T07:37:45;21.47;;;14.27;;
47429;SDS011;33181;49.246;7.372;2023-04-25T07:40:11;25.43;;;15.03;;
47429;SDS011;33181;49.246;7.372;2023-04-25T07:42:37;19.73;;;13.20;;
47429;SDS011;33181;49.246;7.372;2023-04-25T07:45:03;22.03;;;15.10;;
47429;SDS011;33181;49.246;7.372;2023-04-25T07:47:30;21.80;;;14.83;;
47429;SDS011;33181;49.246;7.372;2023-04-25T07:49:55;25.93;;;15.20;;
47429;SDS011;33181;49.246;7.372;2023-04-25T07:52:23;24.97;;;14.60;;
47429;SDS011;33181;49.246;7.372;2023-04-25T07:54:50;24.33;;;15.00;;
47429;SDS011;33181;49.246;7.372;2023-04-25T07:57:15;20.77;;;14.07;;
47429;SDS011;33181;49.246;7.372;2023-04-25T07:59:42;24.53;;;15.90;;
47429;SDS011;33181;49.246;7.372;2023-04-25T08:02:07;22.60;;;16.10;;
47429;SDS011;33181;49.246;7.372;2023-04-25T08:04:34;23.40;;;16.13;;
47429;SDS011;33181;49.246;7.372;2023-04-25T08:07:00;21.10;;;14.70;;
47429;SDS011;33181;49.246;7.372;2023-04-25T08:09:27;22.87;;;15.30;;
47429;SDS011;33181;49.246;7.372;2023-04-25T08:11:54;21.43;;;14.57;;
47429;SDS011;33181;49.246;7.372;2023-04-25T08:14:21;24.50;;;15.40;;
47429;SDS011;33181;49.246;7.372;2023-04-25T08:16:49;22.53;;;14.53;;
47429;SDS011;33181;49.246;7.372;2023-04-25T08:19:15;19.07;;;12.70;;
47429;SDS011;33181;49.246;7.372;2023-04-25T08:21:41;23.40;;;13.30;;
47429;SDS011;33181;49.246;7.372;2023-04-25T08:24:07;16.80;;;12.30;;
47429;SDS011;33181;49.246;7.372;2023-04-25T08:26:32;19.03;;;12.50;;
47429;SDS011;33181;49.246;7.372;2023-04-25T08:28:59;19.37;;;12.27;;
47429;SDS011;33181;49.246;7.372;2023-04-25T08:31:25;19.23;;;12.10;;
47429;SDS011;33181;49.246;7.372;2023-04-25T08:33:52;16.13;;;11.87;;
47429;SDS011;33181;49.246;7.372;2023-04-25T08:36:17;16.80;;;12.00;;
47429;SDS011;33181;49.246;7.372;2023-04-25T08:38:44;16.23;;;11.50;;
47429;SDS011;33181;49.246;7.372;2023-04-25T08:41:11;16.23;;;11.53;;
47429;SDS011;33181;49.246;7.372;2023-04-25T08:43:38;14.80;;;11.13;;
47429;SDS011;33181;49.246;7.372;2023-04-25T08:46:09;15.20;;;10.30;;
47429;SDS011;33181;49.246;7.372;2023-04-25T08:48:37;14.77;;;10.07;;
47429;SDS011;33181;49.246;7.372;2023-04-25T08:51:06;12.80;;;9.60;;
47429;SDS011;33181;49.246;7.372;2023-04-25T08:53:33;16.03;;;11.13;;
47429;SDS011;33181;49.246;7.372;2023-04-25T08:56:00;13.40;;;10.37;;
47429;SDS011;33181;49.246;7.372;2023-04-25T08:58:27;13.57;;;9.97;;
47429;SDS011;33181;49.246;7.372;2023-04-25T09:00:54;15.80;;;10.20;;
47429;SDS011;33181;49.246;7.372;2023-04-25T09:03:20;14.10;;;9.80;;
47429;SDS011;33181;49.246;7.372;2023-04-25T09:05:46;16.63;;;10.40;;
47429;SDS011;33181;49.246;7.372;2023-04-25T09:08:12;13.03;;;9.50;;
47429;SDS011;33181;49.246;7.372;2023-04-25T09:10:38;9.93;;;7.53;;
47429;SDS011;33181;49.246;7.372;2023-04-25T09:13:14;15.00;;;7.57;;
47429;SDS011;33181;49.246;7.372;2023-04-25T09:15:57;9.90;;;7.33;;
47429;SDS011;33181;49.246;7.372;2023-04-25T09:18:24;7.23;;;6.10;;
47429;SDS011;33181;49.246;7.372;2023-04-25T09:21:07;9.70;;;6.30;;
47429;SDS011;33181;49.246;7.372;2023-04-25T09:26:16;10.33;;;7.17;;
47429;SDS011;33181;49.246;7.372;2023-04-25T09:28:45;8.80;;;6.73;;
47429;SDS011;33181;49.246;7.372;2023-04-25T09:31:23;9.83;;;7.20;;
47429;SDS011;33181;49.246;7.372;2023-04-25T09:33:49;9.73;;;6.80;;
47429;SDS011;33181;49.246;7.372;2023-04-25T09:36:15;6.90;;;5.50;;
47429;SDS011;33181;49.246;7.372;2023-04-25T09:38:41;5.77;;;5.00;;
47429;SDS011;33181;49.246;7.372;2023-04-25T09:41:11;8.57;;;6.07;;
47429;SDS011;33181;49.246;7.372;2023-04-25T09:43:38;7.40;;;5.13;;
47429;SDS011;33181;49.246;7.372;2023-04-25T09:46:08;5.73;;;4.50;;
47429;SDS011;33181;49.246;7.372;2023-04-25T09:48:36;6.57;;;4.60;;
47429;SDS011;33181;49.246;7.372;2023-04-25T09:51:06;5.90;;;4.70;;
47429;SDS011;33181;49.246;7.372;2023-04-25T09:53:39;5.10;;;4.00;;
47429;SDS011;33181;49.246;7.372;2023-04-25T09:56:07;6.10;;;4.40;;
47429;SDS011;33181;49.246;7.372;2023-04-25T09:58:36;5.73;;;4.50;;
47429;SDS011;33181;49.246;7.372;2023-04-25T10:01:05;6.40;;;4.60;;
47429;SDS011;33181;49.246;7.372;2023-04-25T10:03:38;7.20;;;4.90;;
47429;SDS011;33181;49.246;7.372;2023-04-25T10:06:16;6.27;;;5.10;;
47429;SDS011;33181;49.246;7.372;2023-04-25T10:08:46;7.30;;;5.30;;
47429;SDS011;33181;49.246;7.372;2023-04-25T10:11:18;8.90;;;5.60;;
47429;SDS011;33181;49.246;7.372;2023-04-25T10:13:46;7.47;;;6.13;;
47429;SDS011;33181;49.246;7.372;2023-04-25T10:16:12;8.30;;;6.80;;
47429;SDS011;33181;49.246;7.372;2023-04-25T10:18:38;9.27;;;7.00;;
47429;SDS011;33181;49.246;7.372;2023-04-25T10:21:05;10.60;;;7.53;;
47429;SDS011;33181;49.246;7.372;2023-04-25T10:23:32;10.20;;;7.73;;
47429;SDS011;33181;49.246;7.372;2023-04-25T10:26:01;14.50;;;8.50;;
47429;SDS011;33181;49.246;7.372;2023-04-25T10:28:27;9.43;;;6.83;;
47429;SDS011;33181;49.246;7.372;2023-04-25T10:31:03;8.73;;;6.33;;
47429;SDS011;33181;49.246;7.372;2023-04-25T10:33:35;8.27;;;4.83;;
47429;SDS011;33181;49.246;7.372;2023-04-25T10:36:20;9.80;;;5.93;;
47429;SDS011;33181;49.246;7.372;2023-04-25T10:38:48;7.87;;;6.33;;
47429;SDS011;33181;49.246;7.372;2023-04-25T10:41:17;8.20;;;6.10;;
47429;SDS011;33181;49.246;7.372;2023-04-25T10:43:45;6.53;;;5.00;;
47429;SDS011;33181;49.246;7.372;2023-04-25T10:48:49;5.43;;;4.70;;
47429;SDS011;33181;49.246;7.372;2023-04-25T10:51:26;5.07;;;4.30;;
47429;SDS011;33181;49.246;7.372;2023-04-25T10:56:29;6.70;;;5.30;;
47429;SDS011;33181;49.246;7.372;2023-04-25T10:59:17;6.40;;;5.03;;
47429;SDS011;33181;49.246;7.372;2023-04-25T11:02:02;7.80;;;5.83;;
47429;SDS011;33181;49.246;7.372;2023-04-25T11:04:39;6.30;;;5.33;;
47429;SDS011;33181;49.246;7.372;2023-04-25T11:09:57;5.90;;;4.63;;
47429;SDS011;33181;49.246;7.372;2023-04-25T11:12:30;6.83;;;4.87;;
47429;SDS011;33181;49.246;7.372;2023-04-25T11:15:06;7.30;;;5.17;;
47429;SDS011;33181;49.246;7.372;2023-04-25T11:17:33;6.50;;;4.80;;
47429;SDS011;33181;49.246;7.372;2023-04-25T11:19:59;5.03;;;4.10;;
47429;SDS011;33181;49.246;7.372;2023-04-25T11:22:28;4.57;;;3.63;;
47429;SDS011;33181;49.246;7.372;2023-04-25T11:24:55;4.03;;;3.40;;
47429;SDS011;33181;49.246;7.372;2023-04-25T11:27:21;7.20;;;4.50;;
47429;SDS011;33181;49.246;7.372;2023-04-25T11:29:49;6.30;;;4.10;;
47429;SDS011;33181;49.246;7.372;2023-04-25T11:32:15;5.00;;;4.00;;
47429;SDS011;33181;49.246;7.372;2023-04-25T11:34:44;5.83;;;4.20;;
47429;SDS011;33181;49.246;7.372;2023-04-25T11:37:10;6.20;;;4.80;;
47429;SDS011;33181;49.246;7.372;2023-04-25T11:39:37;7.57;;;5.50;;
47429;SDS011;33181;49.246;7.372;2023-04-25T11:42:09;9.20;;;5.63;;
47429;SDS011;33181;49.246;7.372;2023-04-25T11:44:35;6.20;;;5.30;;
47429;SDS011;33181;49.246;7.372;2023-04-25T11:47:06;7.83;;;5.77;;
47429;SDS011;33181;49.246;7.372;2023-04-25T11:49:32;7.23;;;5.47;;
47429;SDS011;33181;49.246;7.372;2023-04-25T11:51:58;8.63;;;5.80;;
47429;SDS011;33181;49.246;7.372;2023-04-25T11:54:24;7.93;;;6.13;;
47429;SDS011;33181;49.246;7.372;2023-04-25T11:56:51;9.10;;;6.30;;
47429;SDS011;33181;49.246;7.372;2023-04-25T11:59:17;10.03;;;7.10;;
47429;SDS011;33181;49.246;7.372;2023-04-25T12:01:50;9.43;;;7.17;;
47429;SDS011;33181;49.246;7.372;2023-04-25T12:04:17;9.63;;;6.97;;
47429;SDS011;33181;49.246;7.372;2023-04-25T12:06:45;9.47;;;6.70;;
47429;SDS011;33181;49.246;7.372;2023-04-25T12:09:14;7.87;;;6.20;;
47429;SDS011;33181;49.246;7.372;2023-04-25T12:11:47;15.80;;;7.20;;
47429;SDS011;33181;49.246;7.372;2023-04-25T12:14:27;11.63;;;7.43;;
47429;SDS011;33181;49.246;7.372;2023-04-25T12:16:58;10.40;;;7.53;;
47429;SDS011;33181;49.246;7.372;2023-04-25T12:19:26;12.13;;;7.57;;
47429;SDS011;33181;49.246;7.372;2023-04-25T12:22:01;11.00;;;7.30;;
47429;SDS011;33181;49.246;7.372;2023-04-25T12:24:28;11.43;;;7.53;;
47429;SDS011;33181;49.246;7.372;2023-04-25T12:29:30;12.53;;;8.67;;
47429;SDS011;33181;49.246;7.372;2023-04-25T12:31:58;9.90;;;7.43;;
47429;SDS011;33181;49.246;7.372;2023-04-25T12:34:26;11.67;;;7.80;;
47429;SDS011;33181;49.246;7.372;2023-04-25T12:36:53;10.77;;;7.40;;
47429;SDS011;33181;49.246;7.372;2023-04-25T12:41:50;11.30;;;7.77;;
47429;SDS011;33181;49.246;7.372;2023-04-25T12:44:20;11.90;;;7.80;;
47429;SDS011;33181;49.246;7.372;2023-04-25T12:46:46;10.33;;;7.53;;
47429;SDS011;33181;49.246;7.372;2023-04-25T12:49:13;11.57;;;8.00;;
47429;SDS011;33181;49.246;7.372;2023-04-25T12:51:39;10.13;;;7.80;;
47429;SDS011;33181;49.246;7.372;2023-04-25T12:54:06;12.40;;;8.40;;
47429;SDS011;33181;49.246;7.372;2023-04-25T12:56:33;11.00;;;8.37;;
47429;SDS011;33181;49.246;7.372;2023-04-25T12:59:00;13.70;;;8.07;;
47429;SDS011;33181;49.246;7.372;2023-04-25T13:01:30;10.33;;;7.47;;
47429;SDS011;33181;49.246;7.372;2023-04-25T13:03:55;8.03;;;6.20;;
47429;SDS011;33181;49.246;7.372;2023-04-25T13:06:21;10.73;;;7.30;;
47429;SDS011;33181;49.246;7.372;2023-04-25T13:08:48;13.60;;;7.50;;
47429;SDS011;33181;49.246;7.372;2023-04-25T13:11:13;8.73;;;6.40;;
47429;SDS011;33181;49.246;7.372;2023-04-25T13:13:40;10.00;;;7.20;;
47429;SDS011;33181;49.246;7.372;2023-04-25T13:16:07;8.30;;;6.27;;
47429;SDS011;33181;49.246;7.372;2023-04-25T13:18:33;9.87;;;7.00;;
47429;SDS011;33181;49.246;7.372;2023-04-25T13:20:59;11.23;;;7.33;;
47429;SDS011;33181;49.246;7.372;2023-04-25T13:23:27;10.10;;;6.70;;
47429;SDS011;33181;49.246;7.372;2023-04-25T13:25:54;10.00;;;7.90;;
47429;SDS011;33181;49.246;7.372;2023-04-25T13:28:22;11.00;;;8.40;;
47429;SDS011;33181;49.246;7.372;2023-04-25T13:30:49;13.47;;;7.43;;
47429;SDS011;33181;49.246;7.372;2023-04-25T13:33:16;11.20;;;7.30;;
47429;SDS011;33181;49.246;7.372;2023-04-25T13:35:42;11.13;;;8.43;;
47429;SDS011;33181;49.246;7.372;2023-04-25T13:38:18;10.60;;;8.50;;
47429;SDS011;33181;49.246;7.372;2023-04-25T13:40:47;11.17;;;8.00;;
47429;SDS011;33181;49.246;7.372;2023-04-25T13:43:13;11.93;;;8.50;;
47429;SDS011;33181;49.246;7.372;2023-04-25T13:45:39;10.33;;;7.90;;
47429;SDS011;33181;49.246;7.372;2023-04-25T13:48:06;12.43;;;8.63;;
47429;SDS011;33181;49.246;7.372;2023-04-25T13:50:34;12.60;;;8.63;;
47429;SDS011;33181;49.246;7.372;2023-04-25T13:53:01;11.87;;;8.37;;
47429;SDS011;33181;49.246;7.372;2023-04-25T13:55:27;11.50;;;8.90;;
47429;SDS011;33181;49.246;7.372;2023-04-25T13:57:53;14.00;;;9.90;;
47429;SDS011;33181;49.246;7.372;2023-04-25T14:00:20;12.40;;;9.10;;
47429;SDS011;33181;49.246;7.372;2023-04-25T14:02:47;16.03;;;10.50;;
47429;SDS011;33181;49.246;7.372;2023-04-25T14:05:13;13.80;;;9.70;;
47429;SDS011;33181;49.246;7.372;2023-04-25T14:07:39;14.07;;;9.20;;
47429;SDS011;33181;49.246;7.372;2023-04-25T14:10:06;12.67;;;8.70;;
47429;SDS011;33181;49.246;7.372;2023-04-25T14:12:32;14.33;;;9.77;;
47429;SDS011;33181;49.246;7.372;2023-04-25T14:14:58;10.80;;;8.40;;
47429;SDS011;33181;49.246;7.372;2023-04-25T14:17:25;13.50;;;8.47;;
47429;SDS011;33181;49.246;7.372;2023-04-25T14:19:50;12.57;;;8.50;;
47429;SDS011;33181;49.246;7.372;2023-04-25T14:22:21;12.77;;;8.33;;
47429;SDS011;33181;49.246;7.372;2023-04-25T14:24:46;12.47;;;9.20;;
47429;SDS011;33181;49.246;7.372;2023-04-25T14:27:13;9.17;;;7.07;;
47429;SDS011;33181;49.246;7.372;2023-04-25T14:29:38;10.70;;;7.70;;
47429;SDS011;33181;49.246;7.372;2023-04-25T14:32:05;10.90;;;7.60;;
47429;SDS011;33181;49.246;7.372;2023-04-25T14:34:31;9.83;;;7.80;;
47429;SDS011;33181;49.246;7.372;2023-04-25T14:36:57;9.70;;;7.67;;
47429;SDS011;33181;49.246;7.372;2023-04-25T14:39:23;9.67;;;7.43;;
47429;SDS011;33181;49.246;7.372;2023-04-25T14:41:49;9.10;;;6.70;;
47429;SDS011;33181;49.246;7.372;2023-04-25T14:44:15;11.10;;;7.87;;
47429;SDS011;33181;49.246;7.372;2023-04-25T14:46:40;14.27;;;10.67;;
47429;SDS011;33181;49.246;7.372;2023-04-25T14:49:06;11.17;;;8.80;;
47429;SDS011;33181;49.246;7.372;2023-04-25T14:51:33;11.40;;;7.37;;